Frederica, Delaware
Current Conditions -  °F | °C
As of 3:26 PM on Monday 26 Jan 2015 (Local Time) from KDOV Reporting Station
Ice Pellets Ice Pellets  
Wind Chill: 20°   Ceiling: 1000
Heat Index: 32°   Visibility: 9mi
Dew Point: 32°   Wind: 20mph
Humidity: 100%   Direction: 20°NNE
Pressure: 29.69"   Gusts: NA
Location:  39.01°N, 75.47°W
Report Text: KDOV 262026Z 02017KT 9SM -RAPL OVC010 00/00 A2969 RMK AO2A RAE2023UPB2023 $
Loading
Personal Weather Stations






























Interactive Weather Map New forecast layout! Learn more

10-Day Weather Forecast

Advertisements
Track Severe Weather on mobile